sensor_id;sensor_type;location;lat;lon;timestamp;pressure;altitude;pressure_sealevel;temperature;humidity
52535;BME280;38443;53.164;5.802;2023-12-07T00:01:27;102313.84;;;-0.24;100.00
52535;BME280;38443;53.164;5.802;2023-12-07T00:03:53;102321.75;;;-0.24;100.00
52535;BME280;38443;53.164;5.802;2023-12-07T00:06:18;102319.94;;;-0.25;100.00
52535;BME280;38443;53.164;5.802;2023-12-07T00:08:43;102316.25;;;-0.30;100.00
52535;BME280;38443;53.164;5.802;2023-12-07T00:11:08;102310.78;;;-0.34;100.00
52535;BME280;38443;53.164;5.802;2023-12-07T00:13:34;102317.53;;;-0.41;100.00
52535;BME280;38443;53.164;5.802;2023-12-07T00:15:59;102319.03;;;-0.48;100.00
52535;BME280;38443;53.164;5.802;2023-12-07T00:18:24;102316.94;;;-0.56;100.00
52535;BME280;38443;53.164;5.802;2023-12-07T00:20:49;102315.78;;;-0.63;100.00
52535;BME280;38443;53.164;5.802;2023-12-07T00:23:15;102315.56;;;-0.69;100.00
52535;BME280;38443;53.164;5.802;2023-12-07T00:25:40;102309.16;;;-0.76;100.00
52535;BME280;38443;53.164;5.802;2023-12-07T00:28:05;102313.31;;;-0.81;100.00
52535;BME280;38443;53.164;5.802;2023-12-07T00:30:31;102315.75;;;-0.86;100.00
52535;BME280;38443;53.164;5.802;2023-12-07T00:32:57;102308.59;;;-0.90;100.00
52535;BME280;38443;53.164;5.802;2023-12-07T00:35:22;102316.41;;;-0.91;100.00
52535;BME280;38443;53.164;5.802;2023-12-07T00:37:48;102318.06;;;-0.93;100.00
52535;BME280;38443;53.164;5.802;2023-12-07T00:40:13;102319.03;;;-0.91;100.00
52535;BME280;38443;53.164;5.802;2023-12-07T00:42:39;102321.66;;;-0.91;100.00
52535;BME280;38443;53.164;5.802;2023-12-07T00:45:04;102318.06;;;-0.93;100.00
52535;BME280;38443;53.164;5.802;2023-12-07T00:47:30;102326.78;;;-0.94;100.00
52535;BME280;38443;53.164;5.802;2023-12-07T00:49:55;102329.34;;;-0.96;100.00
52535;BME280;38443;53.164;5.802;2023-12-07T00:52:20;102331.03;;;-0.98;100.00
52535;BME280;38443;53.164;5.802;2023-12-07T00:54:45;102330.06;;;-1.00;100.00
52535;BME280;38443;53.164;5.802;2023-12-07T00:57:11;102329.22;;;-0.99;100.00
52535;BME280;38443;53.164;5.802;2023-12-07T00:59:36;102337.25;;;-0.96;100.00
52535;BME280;38443;53.164;5.802;2023-12-07T01:02:03;102348.81;;;-0.91;100.00
52535;BME280;38443;53.164;5.802;2023-12-07T01:04:29;102358.56;;;-0.88;100.00
52535;BME280;38443;53.164;5.802;2023-12-07T01:06:54;102349.84;;;-0.87;100.00
52535;BME280;38443;53.164;5.802;2023-12-07T01:09:20;102356.97;;;-0.85;100.00
52535;BME280;38443;53.164;5.802;2023-12-07T01:11:45;102360.56;;;-0.83;100.00
52535;BME280;38443;53.164;5.802;2023-12-07T01:14:10;102360.56;;;-0.83;100.00
52535;BME280;38443;53.164;5.802;2023-12-07T01:16:36;102363.19;;;-0.83;100.00
52535;BME280;38443;53.164;5.802;2023-12-07T01:19:02;102372.88;;;-0.82;100.00
52535;BME280;38443;53.164;5.802;2023-12-07T01:21:27;102378.06;;;-0.83;100.00
52535;BME280;38443;53.164;5.802;2023-12-07T01:23:52;102379.03;;;-0.81;100.00
52535;BME280;38443;53.164;5.802;2023-12-07T01:26:17;102382.63;;;-0.79;100.00
52535;BME280;38443;53.164;5.802;2023-12-07T01:28:43;102384.63;;;-0.73;100.00
52535;BME280;38443;53.164;5.802;2023-12-07T01:31:08;102388.28;;;-0.70;100.00
52535;BME280;38443;53.164;5.802;2023-12-07T01:33:33;102385.66;;;-0.70;100.00
52535;BME280;38443;53.164;5.802;2023-12-07T01:35:58;102394.28;;;-0.72;100.00
52535;BME280;38443;53.164;5.802;2023-12-07T01:38:24;102386.28;;;-0.75;100.00
52535;BME280;38443;53.164;5.802;2023-12-07T01:40:49;102383.31;;;-0.83;100.00
52535;BME280;38443;53.164;5.802;2023-12-07T01:43:14;102383.97;;;-0.89;100.00
52535;BME280;38443;53.164;5.802;2023-12-07T01:45:39;102377.56;;;-0.95;100.00
52535;BME280;38443;53.164;5.802;2023-12-07T01:48:05;102384.41;;;-0.99;100.00
52535;BME280;38443;53.164;5.802;2023-12-07T01:50:31;102378.97;;;-1.04;100.00
52535;BME280;38443;53.164;5.802;2023-12-07T01:53:01;102384.13;;;-1.05;100.00
52535;BME280;38443;53.164;5.802;2023-12-07T01:55:27;102385.88;;;-1.06;100.00
52535;BME280;38443;53.164;5.802;2023-12-07T01:57:54;102382.22;;;-1.09;100.00
52535;BME280;38443;53.164;5.802;2023-12-07T02:00:20;102372.16;;;-1.19;100.00
52535;BME280;38443;53.164;5.802;2023-12-07T02:02:46;102378.88;;;-1.26;100.00
52535;BME280;38443;53.164;5.802;2023-12-07T02:05:13;102375.94;;;-1.32;100.00
52535;BME280;38443;53.164;5.802;2023-12-07T02:07:40;102369.59;;;-1.37;100.00
52535;BME280;38443;53.164;5.802;2023-12-07T02:10:06;102368.50;;;-1.43;100.00
52535;BME280;38443;53.164;5.802;2023-12-07T02:12:32;102368.38;;;-1.46;100.00
52535;BME280;38443;53.164;5.802;2023-12-07T02:14:58;102369.19;;;-1.47;100.00
52535;BME280;38443;53.164;5.802;2023-12-07T02:17:30;102368.22;;;-1.49;100.00
52535;BME280;38443;53.164;5.802;2023-12-07T02:20:04;102370.84;;;-1.49;100.00
52535;BME280;38443;53.164;5.802;2023-12-07T02:22:39;102371.63;;;-1.51;100.00
52535;BME280;38443;53.164;5.802;2023-12-07T02:25:09;102366.97;;;-1.57;100.00
52535;BME280;38443;53.164;5.802;2023-12-07T02:27:39;102361.53;;;-1.62;100.00
52535;BME280;38443;53.164;5.802;2023-12-07T02:30:10;102362.44;;;-1.61;100.00
52535;BME280;38443;53.164;5.802;2023-12-07T02:32:40;102370.19;;;-1.64;100.00
52535;BME280;38443;53.164;5.802;2023-12-07T02:35:07;102373.50;;;-1.68;100.00
52535;BME280;38443;53.164;5.802;2023-12-07T02:37:35;102369.75;;;-1.73;100.00
52535;BME280;38443;53.164;5.802;2023-12-07T02:40:06;102377.47;;;-1.76;100.00
52535;BME280;38443;53.164;5.802;2023-12-07T02:42:37;102376.59;;;-1.77;100.00
52535;BME280;38443;53.164;5.802;2023-12-07T02:45:03;102377.34;;;-1.79;100.00
52535;BME280;38443;53.164;5.802;2023-12-07T02:47:29;102371.91;;;-1.84;100.00
52535;BME280;38443;53.164;5.802;2023-12-07T02:49:54;102363.78;;;-1.89;100.00
52535;BME280;38443;53.164;5.802;2023-12-07T02:52:20;102373.31;;;-1.91;100.00
52535;BME280;38443;53.164;5.802;2023-12-07T02:54:45;102367.94;;;-1.94;100.00
52535;BME280;38443;53.164;5.802;2023-12-07T02:57:10;102371.38;;;-1.95;100.00
52535;BME280;38443;53.164;5.802;2023-12-07T02:59:35;102375.75;;;-1.95;100.00
52535;BME280;38443;53.164;5.802;2023-12-07T03:02:01;102376.63;;;-1.95;100.00
52535;BME280;38443;53.164;5.802;2023-12-07T03:04:26;102375.75;;;-1.95;100.00
52535;BME280;38443;53.164;5.802;2023-12-07T03:06:51;102382.72;;;-1.96;100.00
52535;BME280;38443;53.164;5.802;2023-12-07T03:09:16;102377.19;;;-2.02;100.00
52535;BME280;38443;53.164;5.802;2023-12-07T03:11:42;102375.28;;;-2.05;100.00
52535;BME280;38443;53.164;5.802;2023-12-07T03:14:07;102369.91;;;-2.08;100.00
52535;BME280;38443;53.164;5.802;2023-12-07T03:16:32;102374.41;;;-2.05;100.00
52535;BME280;38443;53.164;5.802;2023-12-07T03:18:57;102373.59;;;-2.04;100.00
52535;BME280;38443;53.164;5.802;2023-12-07T03:21:23;102373.50;;;-2.06;100.00
52535;BME280;38443;53.164;5.802;2023-12-07T03:23:48;102382.19;;;-2.07;100.00
52535;BME280;38443;53.164;5.802;2023-12-07T03:26:15;102393.59;;;-2.06;100.00
52535;BME280;38443;53.164;5.802;2023-12-07T03:28:40;102391.78;;;-2.07;100.00
52535;BME280;38443;53.164;5.802;2023-12-07T03:31:05;102399.53;;;-2.10;100.00
52535;BME280;38443;53.164;5.802;2023-12-07T03:33:31;102399.47;;;-2.12;100.00
52535;BME280;38443;53.164;5.802;2023-12-07T03:35:56;102402.00;;;-2.13;100.00
52535;BME280;38443;53.164;5.802;2023-12-07T03:38:21;102398.41;;;-2.15;100.00
52535;BME280;38443;53.164;5.802;2023-12-07T03:40:47;102398.13;;;-2.22;100.00
52535;BME280;38443;53.164;5.802;2023-12-07T03:43:13;102404.84;;;-2.27;100.00
52535;BME280;38443;53.164;5.802;2023-12-07T03:45:38;102407.34;;;-2.30;100.00
52535;BME280;38443;53.164;5.802;2023-12-07T03:48:03;102409.97;;;-2.30;100.00
52535;BME280;38443;53.164;5.802;2023-12-07T03:50:29;102413.56;;;-2.28;100.00
52535;BME280;38443;53.164;5.802;2023-12-07T03:52:54;102411.41;;;-2.18;100.00
52535;BME280;38443;53.164;5.802;2023-12-07T03:55:19;102420.28;;;-2.15;100.00
52535;BME280;38443;53.164;5.802;2023-12-07T03:57:45;102418.03;;;-2.07;100.00
52535;BME280;38443;53.164;5.802;2023-12-07T04:00:11;102419.97;;;-2.03;100.00
52535;BME280;38443;53.164;5.802;2023-12-07T04:02:37;102422.75;;;-2.00;100.00
52535;BME280;38443;53.164;5.802;2023-12-07T04:05:02;102433.53;;;-1.94;100.00
52535;BME280;38443;53.164;5.802;2023-12-07T04:07:28;102431.81;;;-1.93;100.00
52535;BME280;38443;53.164;5.802;2023-12-07T04:09:54;102441.63;;;-1.89;100.00
52535;BME280;38443;53.164;5.802;2023-12-07T04:12:20;102446.19;;;-1.85;100.00
52535;BME280;38443;53.164;5.802;2023-12-07T04:14:45;102447.06;;;-1.85;100.00
52535;BME280;38443;53.164;5.802;2023-12-07T04:17:10;102454.13;;;-1.84;100.00
52535;BME280;38443;53.164;5.802;2023-12-07T04:19:36;102453.16;;;-1.86;100.00
52535;BME280;38443;53.164;5.802;2023-12-07T04:22:01;102460.16;;;-1.86;100.00
52535;BME280;38443;53.164;5.802;2023-12-07T04:24:26;102470.66;;;-1.86;100.00
52535;BME280;38443;53.164;5.802;2023-12-07T04:26:51;102470.69;;;-1.85;100.00
52535;BME280;38443;53.164;5.802;2023-12-07T04:29:17;102463.59;;;-1.87;100.00
52535;BME280;38443;53.164;5.802;2023-12-07T04:31:42;102471.63;;;-1.84;100.00
52535;BME280;38443;53.164;5.802;2023-12-07T04:34:07;102468.06;;;-1.85;100.00
52535;BME280;38443;53.164;5.802;2023-12-07T04:36:32;102474.28;;;-1.83;100.00
52535;BME280;38443;53.164;5.802;2023-12-07T04:38:58;102470.69;;;-1.85;100.00
52535;BME280;38443;53.164;5.802;2023-12-07T04:41:23;102480.38;;;-1.84;100.00
52535;BME280;38443;53.164;5.802;2023-12-07T04:43:48;102484.66;;;-1.86;100.00
52535;BME280;38443;53.164;5.802;2023-12-07T04:46:13;102480.38;;;-1.84;100.00
52535;BME280;38443;53.164;5.802;2023-12-07T04:48:39;102482.16;;;-1.83;100.00
52535;BME280;38443;53.164;5.802;2023-12-07T04:51:05;102490.00;;;-1.84;100.00
52535;BME280;38443;53.164;5.802;2023-12-07T04:53:30;102487.28;;;-1.86;100.00
52535;BME280;38443;53.164;5.802;2023-12-07T04:55:56;102492.44;;;-1.87;100.00
52535;BME280;38443;53.164;5.802;2023-12-07T04:58:21;102491.34;;;-1.92;100.00
52535;BME280;38443;53.164;5.802;2023-12-07T05:00:46;102493.59;;;-2.00;100.00
52535;BME280;38443;53.164;5.802;2023-12-07T05:03:12;102491.47;;;-2.07;100.00
52535;BME280;38443;53.164;5.802;2023-12-07T05:05:37;102494.78;;;-2.11;100.00
52535;BME280;38443;53.164;5.802;2023-12-07T05:08:02;102488.34;;;-2.18;100.00
52535;BME280;38443;53.164;5.802;2023-12-07T05:10:28;102482.94;;;-2.21;100.00
52535;BME280;38443;53.164;5.802;2023-12-07T05:12:53;102494.25;;;-2.22;100.00
52535;BME280;38443;53.164;5.802;2023-12-07T05:15:18;102495.91;;;-2.24;100.00
52535;BME280;38443;53.164;5.802;2023-12-07T05:17:43;102494.00;;;-2.27;100.00
52535;BME280;38443;53.164;5.802;2023-12-07T05:20:09;102485.72;;;-2.36;100.00
52535;BME280;38443;53.164;5.802;2023-12-07T05:22:34;102486.97;;;-2.46;100.00
52535;BME280;38443;53.164;5.802;2023-12-07T05:25:00;102483.19;;;-2.51;100.00
52535;BME280;38443;53.164;5.802;2023-12-07T05:27:25;102487.25;;;-2.57;100.00
52535;BME280;38443;53.164;5.802;2023-12-07T05:29:50;102485.38;;;-2.60;100.00
52535;BME280;38443;53.164;5.802;2023-12-07T05:32:15;102494.97;;;-2.61;100.00
52535;BME280;38443;53.164;5.802;2023-12-07T05:34:41;102491.38;;;-2.63;100.00
52535;BME280;38443;53.164;5.802;2023-12-07T05:37:07;102493.16;;;-2.62;100.00
52535;BME280;38443;53.164;5.802;2023-12-07T05:39:32;102494.34;;;-2.55;100.00
52535;BME280;38443;53.164;5.802;2023-12-07T05:41:57;102498.22;;;-2.48;100.00
52535;BME280;38443;53.164;5.802;2023-12-07T05:44:22;102496.69;;;-2.43;100.00
52535;BME280;38443;53.164;5.802;2023-12-07T05:46:48;102514.38;;;-2.39;100.00
52535;BME280;38443;53.164;5.802;2023-12-07T05:49:13;102508.25;;;-2.39;100.00
52535;BME280;38443;53.164;5.802;2023-12-07T05:51:39;102504.56;;;-2.43;100.00
52535;BME280;38443;53.164;5.802;2023-12-07T05:54:04;102499.22;;;-2.45;100.00
52535;BME280;38443;53.164;5.802;2023-12-07T05:56:31;102502.59;;;-2.47;100.00
52535;BME280;38443;53.164;5.802;2023-12-07T05:58:56;102511.72;;;-2.41;100.00
52535;BME280;38443;53.164;5.802;2023-12-07T06:01:22;102513.66;;;-2.36;100.00
52535;BME280;38443;53.164;5.802;2023-12-07T06:03:47;102515.63;;;-2.32;100.00
52535;BME280;38443;53.164;5.802;2023-12-07T06:06:13;102521.00;;;-2.29;100.00
52535;BME280;38443;53.164;5.802;2023-12-07T06:08:39;102521.97;;;-2.27;100.00
52535;BME280;38443;53.164;5.802;2023-12-07T06:11:05;102527.31;;;-2.26;100.00
52535;BME280;38443;53.164;5.802;2023-12-07T06:13:30;102532.38;;;-2.29;100.00
52535;BME280;38443;53.164;5.802;2023-12-07T06:15:56;102529.63;;;-2.32;100.00
52535;BME280;38443;53.164;5.802;2023-12-07T06:18:21;102534.69;;;-2.35;100.00
52535;BME280;38443;53.164;5.802;2023-12-07T06:20:46;102538.06;;;-2.37;100.00
52535;BME280;38443;53.164;5.802;2023-12-07T06:23:12;102535.44;;;-2.37;100.00
52535;BME280;38443;53.164;5.802;2023-12-07T06:25:38;102529.13;;;-2.41;100.00
52535;BME280;38443;53.164;5.802;2023-12-07T06:28:03;102533.19;;;-2.48;100.00
52535;BME280;38443;53.164;5.802;2023-12-07T06:30:29;102538.91;;;-2.55;100.00
52535;BME280;38443;53.164;5.802;2023-12-07T06:32:54;102535.25;;;-2.58;100.00
52535;BME280;38443;53.164;5.802;2023-12-07T06:35:19;102534.91;;;-2.65;100.00
52535;BME280;38443;53.164;5.802;2023-12-07T06:37:45;102532.81;;;-2.72;100.00
52535;BME280;38443;53.164;5.802;2023-12-07T06:40:10;102539.78;;;-2.72;100.00
52535;BME280;38443;53.164;5.802;2023-12-07T06:42:35;102539.44;;;-2.62;100.00
52535;BME280;38443;53.164;5.802;2023-12-07T06:45:01;102544.34;;;-2.52;100.00
52535;BME280;38443;53.164;5.802;2023-12-07T06:47:27;102552.03;;;-2.55;100.00
52535;BME280;38443;53.164;5.802;2023-12-07T06:49:52;102550.25;;;-2.56;100.00
52535;BME280;38443;53.164;5.802;2023-12-07T06:52:18;102550.06;;;-2.59;100.00
52535;BME280;38443;53.164;5.802;2023-12-07T06:54:43;102557.53;;;-2.50;100.00
52535;BME280;38443;53.164;5.802;2023-12-07T06:57:08;102562.16;;;-2.45;100.00
52535;BME280;38443;53.164;5.802;2023-12-07T06:59:33;102560.69;;;-2.39;100.00
52535;BME280;38443;53.164;5.802;2023-12-07T07:01:59;102564.16;;;-2.41;100.00
52535;BME280;38443;53.164;5.802;2023-12-07T07:04:24;102556.91;;;-2.45;100.00
52535;BME280;38443;53.164;5.802;2023-12-07T07:06:50;102566.38;;;-2.48;100.00
52535;BME280;38443;53.164;5.802;2023-12-07T07:09:16;102559.88;;;-2.55;100.00
52535;BME280;38443;53.164;5.802;2023-12-07T07:11:41;102549.91;;;-2.62;100.00
52535;BME280;38443;53.164;5.802;2023-12-07T07:14:07;102547.88;;;-2.68;100.00
52535;BME280;38443;53.164;5.802;2023-12-07T07:16:32;102549.50;;;-2.70;100.00
52535;BME280;38443;53.164;5.802;2023-12-07T07:18:58;102559.03;;;-2.72;100.00
52535;BME280;38443;53.164;5.802;2023-12-07T07:21:23;102550.97;;;-2.75;100.00
52535;BME280;38443;53.164;5.802;2023-12-07T07:23:48;102553.53;;;-2.76;100.00
52535;BME280;38443;53.164;5.802;2023-12-07T07:26:14;102555.19;;;-2.78;100.00
52535;BME280;38443;53.164;5.802;2023-12-07T07:28:42;102550.75;;;-2.79;100.00
52535;BME280;38443;53.164;5.802;2023-12-07T07:31:08;102553.22;;;-2.83;100.00
52535;BME280;38443;53.164;5.802;2023-12-07T07:33:33;102560.25;;;-2.82;100.00
52535;BME280;38443;53.164;5.802;2023-12-07T07:35:58;102558.47;;;-2.83;100.00
52535;BME280;38443;53.164;5.802;2023-12-07T07:38:24;102561.13;;;-2.81;100.00
52535;BME280;38443;53.164;5.802;2023-12-07T07:40:49;102561.09;;;-2.83;100.00
52535;BME280;38443;53.164;5.802;2023-12-07T07:43:15;102557.53;;;-2.83;100.00
52535;BME280;38443;53.164;5.802;2023-12-07T07:45:40;102569.84;;;-2.82;100.00
52535;BME280;38443;53.164;5.802;2023-12-07T07:48:05;102577.94;;;-2.77;100.00
52535;BME280;38443;53.164;5.802;2023-12-07T07:50:31;102579.22;;;-2.69;100.00
52535;BME280;38443;53.164;5.802;2023-12-07T07:52:56;102592.44;;;-2.68;100.00
52535;BME280;38443;53.164;5.802;2023-12-07T07:55:21;102580.63;;;-2.59;100.00
52535;BME280;38443;53.164;5.802;2023-12-07T07:57:46;102585.53;;;-2.49;100.00
52535;BME280;38443;53.164;5.802;2023-12-07T08:00:12;102582.16;;;-2.47;100.00
52535;BME280;38443;53.164;5.802;2023-12-07T08:02:38;102587.34;;;-2.48;100.00
52535;BME280;38443;53.164;5.802;2023-12-07T08:05:03;102584.06;;;-2.44;100.00
52535;BME280;38443;53.164;5.802;2023-12-07T08:07:29;102581.56;;;-2.41;100.00
52535;BME280;38443;53.164;5.802;2023-12-07T08:09:54;102586.34;;;-2.34;100.00
52535;BME280;38443;53.164;5.802;2023-12-07T08:12:19;102588.28;;;-2.30;100.00
52535;BME280;38443;53.164;5.802;2023-12-07T08:14:48;102591.00;;;-2.28;100.00
52535;BME280;38443;53.164;5.802;2023-12-07T08:17:13;102586.72;;;-2.26;100.00
52535;BME280;38443;53.164;5.802;2023-12-07T08:19:41;102594.50;;;-2.28;100.00
52535;BME280;38443;53.164;5.802;2023-12-07T08:22:07;102593.63;;;-2.28;100.00
52535;BME280;38443;53.164;5.802;2023-12-07T08:24:33;102591.56;;;-2.34;100.00
52535;BME280;38443;53.164;5.802;2023-12-07T08:26:58;102587.78;;;-2.39;100.00
52535;BME280;38443;53.164;5.802;2023-12-07T08:29:23;102593.69;;;-2.43;100.00
52535;BME280;38443;53.164;5.802;2023-12-07T08:31:49;102594.69;;;-2.41;100.00
52535;BME280;38443;53.164;5.802;2023-12-07T08:34:14;102598.47;;;-2.36;100.00
52535;BME280;38443;53.164;5.802;2023-12-07T08:36:39;102581.97;;;-2.33;100.00
52535;BME280;38443;53.164;5.802;2023-12-07T08:39:05;102583.03;;;-2.30;100.00
52535;BME280;38443;53.164;5.802;2023-12-07T08:41:34;102584.03;;;-2.28;100.00
52535;BME280;38443;53.164;5.802;2023-12-07T08:44:00;102592.13;;;-2.23;100.00
52535;BME280;38443;53.164;5.802;2023-12-07T08:46:25;102591.31;;;-2.22;100.00
52535;BME280;38443;53.164;5.802;2023-12-07T08:48:50;102587.13;;;-2.18;100.00
52535;BME280;38443;53.164;5.802;2023-12-07T08:51:15;102588.81;;;-2.19;100.00
52535;BME280;38443;53.164;5.802;2023-12-07T08:53:41;102588.09;;;-2.16;100.00
52535;BME280;38443;53.164;5.802;2023-12-07T08:56:06;102588.91;;;-2.17;100.00
52535;BME280;38443;53.164;5.802;2023-12-07T08:58:32;102585.47;;;-2.16;100.00
52535;BME280;38443;53.164;5.802;2023-12-07T09:00:57;102587.13;;;-2.18;100.00
52535;BME280;38443;53.164;5.802;2023-12-07T09:03:22;102591.22;;;-2.24;100.00
52535;BME280;38443;53.164;5.802;2023-12-07T09:05:52;102595.63;;;-2.23;100.00
52535;BME280;38443;53.164;5.802;2023-12-07T09:08:18;102587.75;;;-2.23;100.00
52535;BME280;38443;53.164;5.802;2023-12-07T09:10:43;102597.44;;;-2.22;100.00
52535;BME280;38443;53.164;5.802;2023-12-07T09:13:08;102599.41;;;-2.17;100.00
52535;BME280;38443;53.164;5.802;2023-12-07T09:15:34;102593.34;;;-2.16;100.00
52535;BME280;38443;53.164;5.802;2023-12-07T09:18:02;102598.66;;;-2.15;100.00
52535;BME280;38443;53.164;5.802;2023-12-07T09:20:28;102591.03;;;-2.10;100.00
52535;BME280;38443;53.164;5.802;2023-12-07T09:22:53;102599.88;;;-2.08;100.00
52535;BME280;38443;53.164;5.802;2023-12-07T09:25:20;102595.66;;;-2.05;100.00
52535;BME280;38443;53.164;5.802;2023-12-07T09:27:46;102602.16;;;-1.98;100.00
52535;BME280;38443;53.164;5.802;2023-12-07T09:30:13;102604.09;;;-1.94;100.00
52535;BME280;38443;53.164;5.802;2023-12-07T09:32:41;102610.47;;;-1.89;100.00
52535;BME280;38443;53.164;5.802;2023-12-07T09:35:08;102607.25;;;-1.83;100.00
52535;BME280;38443;53.164;5.802;2023-12-07T09:37:44;102609.38;;;-1.76;100.00
52535;BME280;38443;53.164;5.802;2023-12-07T09:40:14;102608.81;;;-1.69;100.00
52535;BME280;38443;53.164;5.802;2023-12-07T09:42:40;102615.34;;;-1.61;100.00
52535;BME280;38443;53.164;5.802;2023-12-07T09:45:07;102614.91;;;-1.52;100.00
52535;BME280;38443;53.164;5.802;2023-12-07T09:47:32;102612.59;;;-1.46;100.00
52535;BME280;38443;53.164;5.802;2023-12-07T09:49:59;102603.19;;;-1.41;100.00
52535;BME280;38443;53.164;5.802;2023-12-07T09:52:24;102614.06;;;-1.33;100.00
52535;BME280;38443;53.164;5.802;2023-12-07T09:54:51;102610.06;;;-1.25;100.00
52535;BME280;38443;53.164;5.802;2023-12-07T09:57:17;102606.03;;;-1.18;100.00
52535;BME280;38443;53.164;5.802;2023-12-07T09:59:42;102601.09;;;-1.10;100.00
52535;BME280;38443;53.164;5.802;2023-12-07T10:02:08;102603.22;;;-1.03;100.00
52535;BME280;38443;53.164;5.802;2023-12-07T10:04:33;102605.22;;;-0.97;100.00
52535;BME280;38443;53.164;5.802;2023-12-07T10:06:58;102599.41;;;-0.90;100.00
52535;BME280;38443;53.164;5.802;2023-12-07T10:09:23;102598.88;;;-0.83;100.00
52535;BME280;38443;53.164;5.802;2023-12-07T10:11:49;102601.69;;;-0.78;100.00
52535;BME280;38443;53.164;5.802;2023-12-07T10:14:14;102594.09;;;-0.72;100.00
52535;BME280;38443;53.164;5.802;2023-12-07T10:16:53;102588.28;;;-0.65;100.00
52535;BME280;38443;53.164;5.802;2023-12-07T10:19:22;102594.59;;;-0.62;100.00
52535;BME280;38443;53.164;5.802;2023-12-07T10:21:48;102586.81;;;-0.58;100.00
52535;BME280;38443;53.164;5.802;2023-12-07T10:24:18;102597.69;;;-0.51;100.00
52535;BME280;38443;53.164;5.802;2023-12-07T10:26:44;102593.47;;;-0.47;100.00
52535;BME280;38443;53.164;5.802;2023-12-07T10:29:10;102594.59;;;-0.42;100.00
52535;BME280;38443;53.164;5.802;2023-12-07T10:31:38;102591.97;;;-0.42;100.00
52535;BME280;38443;53.164;5.802;2023-12-07T10:34:04;102577.34;;;-0.35;100.00
52535;BME280;38443;53.164;5.802;2023-12-07T10:36:33;102581.00;;;-0.32;100.00
52535;BME280;38443;53.164;5.802;2023-12-07T10:38:58;102582.78;;;-0.31;100.00
52535;BME280;38443;53.164;5.802;2023-12-07T10:41:24;102583.91;;;-0.26;100.00
52535;BME280;38443;53.164;5.802;2023-12-07T10:43:53;102582.16;;;-0.25;100.00
52535;BME280;38443;53.164;5.802;2023-12-07T10:46:22;102580.56;;;-0.22;100.00
52535;BME280;38443;53.164;5.802;2023-12-07T10:48:48;102575.47;;;-0.17;100.00
52535;BME280;38443;53.164;5.802;2023-12-07T10:51:29;102566.09;;;-0.10;100.00
52535;BME280;38443;53.164;5.802;2023-12-07T10:53:56;102568.81;;;-0.09;100.00
52535;BME280;38443;53.164;5.802;2023-12-07T10:56:34;102567.06;;;-0.08;100.00
52535;BME280;38443;53.164;5.802;2023-12-07T10:59:02;102558.34;;;-0.07;100.00
52535;BME280;38443;53.164;5.802;2023-12-07T11:01:27;102554.06;;;-0.05;100.00
52535;BME280;38443;53.164;5.802;2023-12-07T11:03:53;102557.72;;;-0.02;100.00
52535;BME280;38443;53.164;5.802;2023-12-07T11:06:19;102553.50;;;0.02;100.00
52535;BME280;38443;53.164;5.802;2023-12-07T11:08:49;102547.56;;;0.08;100.00
52535;BME280;38443;53.164;5.802;2023-12-07T11:11:23;102545.00;;;0.09;100.00
52535;BME280;38443;53.164;5.802;2023-12-07T11:14:02;102531.97;;;0.12;100.00
52535;BME280;38443;53.164;5.802;2023-12-07T11:18:56;102525.03;;;0.14;100.00
52535;BME280;38443;53.164;5.802;2023-12-07T11:21:22;102526.75;;;0.14;100.00
52535;BME280;38443;53.164;5.802;2023-12-07T11:23:48;102517.16;;;0.16;100.00
52535;BME280;38443;53.164;5.802;2023-12-07T11:26:13;102508.44;;;0.17;100.00
52535;BME280;38443;53.164;5.802;2023-12-07T11:28:38;102501.38;;;0.16;100.00
52535;BME280;38443;53.164;5.802;2023-12-07T11:31:08;102509.47;;;0.21;100.00
52535;BME280;38443;53.164;5.802;2023-12-07T11:33:33;102509.53;;;0.22;100.00
52535;BME280;38443;53.164;5.802;2023-12-07T11:38:27;102498.53;;;0.32;100.00
52535;BME280;38443;53.164;5.802;2023-12-07T11:40:53;102486.31;;;0.34;100.00
52535;BME280;38443;53.164;5.802;2023-12-07T11:46:01;102468.88;;;0.38;100.00
52535;BME280;38443;53.164;5.802;2023-12-07T11:48:26;102464.53;;;0.38;100.00
52535;BME280;38443;53.164;5.802;2023-12-07T11:53:24;102450.75;;;0.46;100.00
52535;BME280;38443;53.164;5.802;2023-12-07T11:55:51;102437.56;;;0.46;100.00
52535;BME280;38443;53.164;5.802;2023-12-07T11:58:16;102430.69;;;0.49;100.00
52535;BME280;38443;53.164;5.802;2023-12-07T12:00:43;102423.44;;;0.66;100.00
52535;BME280;38443;53.164;5.802;2023-12-07T12:03:08;102423.28;;;0.87;100.00
52535;BME280;38443;53.164;5.802;2023-12-07T12:05:33;102417.00;;;0.84;100.00
52535;BME280;38443;53.164;5.802;2023-12-07T12:07:58;102408.81;;;0.76;100.00
52535;BME280;38443;53.164;5.802;2023-12-07T12:10:24;102392.47;;;0.61;100.00
52535;BME280;38443;53.164;5.802;2023-12-07T12:12:51;102380.78;;;0.30;100.00
52535;BME280;38443;53.164;5.802;2023-12-07T12:15:16;102355.13;;;0.00;100.00
52535;BME280;38443;53.164;5.802;2023-12-07T12:17:42;102340.47;;;-0.16;100.00
52535;BME280;38443;53.164;5.802;2023-12-07T12:20:08;102333.75;;;-0.30;100.00
52535;BME280;38443;53.164;5.802;2023-12-07T12:22:36;102334.22;;;-0.41;100.00
52535;BME280;38443;53.164;5.802;2023-12-07T12:25:02;102323.53;;;-0.45;100.00
52535;BME280;38443;53.164;5.802;2023-12-07T12:27:27;102313.47;;;-0.55;100.00
52535;BME280;38443;53.164;5.802;2023-12-07T12:29:53;102304.00;;;-0.73;100.00
52535;BME280;38443;53.164;5.802;2023-12-07T12:32:19;102298.50;;;-0.79;100.00
52535;BME280;38443;53.164;5.802;2023-12-07T12:34:50;102288.78;;;-0.82;100.00
52535;BME280;38443;53.164;5.802;2023-12-07T12:37:16;102277.41;;;-0.81;100.00
52535;BME280;38443;53.164;5.802;2023-12-07T12:39:41;102261.53;;;-0.84;100.00
52535;BME280;38443;53.164;5.802;2023-12-07T12:42:06;102270.13;;;-0.88;100.00
52535;BME280;38443;53.164;5.802;2023-12-07T12:44:31;102252.19;;;-0.98;100.00